sensor_id;sensor_type;location;lat;lon;timestamp;pressure;altitude;pressure_sealevel;temperature;humidity
74960;BME280;63518;49.572;1.106;2022-11-21T00:01:22;99078.38;;;7.53;81.88
74960;BME280;63518;49.572;1.106;2022-11-21T00:03:51;99062.25;;;7.62;82.43
74960;BME280;63518;49.572;1.106;2022-11-21T00:06:18;99058.38;;;7.42;83.02
74960;BME280;63518;49.572;1.106;2022-11-21T00:08:46;99053.78;;;7.68;82.56
74960;BME280;63518;49.572;1.106;2022-11-21T00:11:13;99059.56;;;7.77;82.65
74960;BME280;63518;49.572;1.106;2022-11-21T00:13:41;99038.44;;;7.52;82.95
74960;BME280;63518;49.572;1.106;2022-11-21T00:16:13;99033.25;;;7.61;82.66
74960;BME280;63518;49.572;1.106;2022-11-21T00:18:41;99037.94;;;7.86;82.13
74960;BME280;63518;49.572;1.106;2022-11-21T00:21:16;99039.84;;;7.75;82.31
74960;BME280;63518;49.572;1.106;2022-11-21T00:23:44;99049.16;;;7.69;82.35
74960;BME280;63518;49.572;1.106;2022-11-21T00:26:13;99048.81;;;7.45;82.99
74960;BME280;63518;49.572;1.106;2022-11-21T00:28:44;99046.41;;;7.74;82.27
74960;BME280;63518;49.572;1.106;2022-11-21T00:31:19;99025.34;;;7.59;82.56
74960;BME280;63518;49.572;1.106;2022-11-21T00:33:51;99020.41;;;7.71;82.23
74960;BME280;63518;49.572;1.106;2022-11-21T00:36:19;98997.69;;;7.66;81.99
74960;BME280;63518;49.572;1.106;2022-11-21T00:38:46;99007.56;;;7.67;82.30
74960;BME280;63518;49.572;1.106;2022-11-21T00:41:14;98998.78;;;7.70;81.95
74960;BME280;63518;49.572;1.106;2022-11-21T00:43:43;98995.78;;;7.81;81.11
74960;BME280;63518;49.572;1.106;2022-11-21T00:46:10;99002.34;;;7.65;81.85
74960;BME280;63518;49.572;1.106;2022-11-21T00:48:37;98989.50;;;7.81;81.73
74960;BME280;63518;49.572;1.106;2022-11-21T00:51:04;98998.53;;;7.87;81.20
74960;BME280;63518;49.572;1.106;2022-11-21T00:53:33;99002.88;;;7.62;82.58
74960;BME280;63518;49.572;1.106;2022-11-21T00:56:03;98967.06;;;7.59;82.50
74960;BME280;63518;49.572;1.106;2022-11-21T00:58:30;99000.19;;;7.82;82.18
74960;BME280;63518;49.572;1.106;2022-11-21T01:01:04;98992.78;;;7.78;83.33
74960;BME280;63518;49.572;1.106;2022-11-21T01:03:35;98968.16;;;7.63;81.65
74960;BME280;63518;49.572;1.106;2022-11-21T01:06:08;98996.34;;;7.94;81.97
74960;BME280;63518;49.572;1.106;2022-11-21T01:08:40;98987.03;;;7.74;82.38
74960;BME280;63518;49.572;1.106;2022-11-21T01:11:15;98970.34;;;7.91;82.49
74960;BME280;63518;49.572;1.106;2022-11-21T01:13:44;98964.06;;;7.91;82.57
74960;BME280;63518;49.572;1.106;2022-11-21T01:16:13;98974.44;;;8.09;81.74
74960;BME280;63518;49.572;1.106;2022-11-21T01:18:41;98975.00;;;8.06;82.03
74960;BME280;63518;49.572;1.106;2022-11-21T01:21:20;98945.72;;;7.91;81.87
74960;BME280;63518;49.572;1.106;2022-11-21T01:23:48;98960.22;;;7.92;81.98
74960;BME280;63518;49.572;1.106;2022-11-21T01:26:20;98941.34;;;7.85;81.58
74960;BME280;63518;49.572;1.106;2022-11-21T01:28:52;98927.09;;;7.93;82.46
74960;BME280;63518;49.572;1.106;2022-11-21T01:31:22;98919.44;;;7.90;81.60
74960;BME280;63518;49.572;1.106;2022-11-21T01:33:50;98930.06;;;8.12;80.42
74960;BME280;63518;49.572;1.106;2022-11-21T01:36:29;98907.97;;;7.83;80.74
74960;BME280;63518;49.572;1.106;2022-11-21T01:38:59;98921.91;;;7.76;81.59
74960;BME280;63518;49.572;1.106;2022-11-21T01:41:34;98919.16;;;7.87;81.56
74960;BME280;63518;49.572;1.106;2022-11-21T01:44:12;98925.16;;;8.04;80.30
74960;BME280;63518;49.572;1.106;2022-11-21T01:46:40;98908.19;;;8.07;80.57
74960;BME280;63518;49.572;1.106;2022-11-21T01:49:15;98915.31;;;8.03;80.49
74960;BME280;63518;49.572;1.106;2022-11-21T01:57:17;98910.41;;;7.69;81.84
74960;BME280;63518;49.572;1.106;2022-11-21T02:02:39;98905.22;;;7.42;82.46
74960;BME280;63518;49.572;1.106;2022-11-21T02:05:16;98889.06;;;7.71;82.21
74960;BME280;63518;49.572;1.106;2022-11-21T02:07:46;98893.16;;;7.74;81.93
74960;BME280;63518;49.572;1.106;2022-11-21T02:10:15;98877.28;;;7.81;80.71
74960;BME280;63518;49.572;1.106;2022-11-21T02:12:55;98871.28;;;7.64;81.28
74960;BME280;63518;49.572;1.106;2022-11-21T02:15:26;98873.50;;;7.62;81.94
74960;BME280;63518;49.572;1.106;2022-11-21T02:17:54;98875.97;;;7.53;81.18
74960;BME280;63518;49.572;1.106;2022-11-21T02:20:26;98859.00;;;7.36;81.93
74960;BME280;63518;49.572;1.106;2022-11-21T02:25:30;98844.50;;;7.55;81.69
74960;BME280;63518;49.572;1.106;2022-11-21T02:28:04;98856.25;;;7.46;81.93
74960;BME280;63518;49.572;1.106;2022-11-21T02:30:35;98838.22;;;7.30;81.33
74960;BME280;63518;49.572;1.106;2022-11-21T02:33:04;98858.19;;;7.30;82.11
74960;BME280;63518;49.572;1.106;2022-11-21T02:35:32;98857.63;;;7.13;82.14
74960;BME280;63518;49.572;1.106;2022-11-21T02:38:04;98849.72;;;7.11;82.47
74960;BME280;63518;49.572;1.106;2022-11-21T02:40:35;98865.00;;;7.17;82.83
74960;BME280;63518;49.572;1.106;2022-11-21T02:43:22;98865.81;;;7.33;83.28
74960;BME280;63518;49.572;1.106;2022-11-21T02:45:50;98858.19;;;7.35;83.00
74960;BME280;63518;49.572;1.106;2022-11-21T02:48:21;98865.03;;;7.27;83.70
74960;BME280;63518;49.572;1.106;2022-11-21T02:50:51;98869.94;;;7.46;83.49
74960;BME280;63518;49.572;1.106;2022-11-21T02:53:24;98866.09;;;7.67;83.18
74960;BME280;63518;49.572;1.106;2022-11-21T02:55:51;98836.28;;;7.55;83.91
74960;BME280;63518;49.572;1.106;2022-11-21T02:58:22;98834.13;;;7.52;83.29
74960;BME280;63518;49.572;1.106;2022-11-21T03:00:50;98838.97;;;7.81;82.58
74960;BME280;63518;49.572;1.106;2022-11-21T03:03:25;98820.66;;;7.76;82.28
74960;BME280;63518;49.572;1.106;2022-11-21T03:05:54;98832.41;;;7.87;83.00
74960;BME280;63518;49.572;1.106;2022-11-21T03:08:25;98839.50;;;7.88;82.84
74960;BME280;63518;49.572;1.106;2022-11-21T03:10:52;98820.69;;;7.61;83.52
74960;BME280;63518;49.572;1.106;2022-11-21T03:13:26;98836.47;;;8.00;83.11
74960;BME280;63518;49.572;1.106;2022-11-21T03:15:53;98839.22;;;7.95;83.72
74960;BME280;63518;49.572;1.106;2022-11-21T03:18:30;98824.97;;;8.03;83.27
74960;BME280;63518;49.572;1.106;2022-11-21T03:20:57;98824.19;;;7.92;83.66
74960;BME280;63518;49.572;1.106;2022-11-21T03:23:24;98808.81;;;8.01;82.59
74960;BME280;63518;49.572;1.106;2022-11-21T03:25:52;98798.09;;;8.15;81.71
74960;BME280;63518;49.572;1.106;2022-11-21T03:28:23;98791.81;;;8.04;81.61
74960;BME280;63518;49.572;1.106;2022-11-21T03:30:50;98789.59;;;8.22;82.55
74960;BME280;63518;49.572;1.106;2022-11-21T03:33:22;98767.00;;;7.91;82.67
74960;BME280;63518;49.572;1.106;2022-11-21T03:35:49;98758.31;;;8.28;80.42
74960;BME280;63518;49.572;1.106;2022-11-21T03:38:17;98776.13;;;8.35;80.25
74960;BME280;63518;49.572;1.106;2022-11-21T03:40:45;98756.72;;;8.22;81.00
74960;BME280;63518;49.572;1.106;2022-11-21T03:43:13;98744.88;;;8.36;80.47
74960;BME280;63518;49.572;1.106;2022-11-21T03:45:40;98726.22;;;8.44;80.84
74960;BME280;63518;49.572;1.106;2022-11-21T03:48:10;98725.00;;;8.10;80.46
74960;BME280;63518;49.572;1.106;2022-11-21T03:50:41;98732.19;;;7.96;81.95
74960;BME280;63518;49.572;1.106;2022-11-21T03:53:11;98718.50;;;7.96;81.65
74960;BME280;63518;49.572;1.106;2022-11-21T03:55:38;98700.66;;;8.09;80.69
74960;BME280;63518;49.572;1.106;2022-11-21T03:58:06;98723.53;;;7.74;83.20
74960;BME280;63518;49.572;1.106;2022-11-21T04:00:34;98717.09;;;8.04;82.19
74960;BME280;63518;49.572;1.106;2022-11-21T04:03:01;98702.88;;;8.02;81.16
74960;BME280;63518;49.572;1.106;2022-11-21T04:05:29;98683.84;;;7.76;81.49
74960;BME280;63518;49.572;1.106;2022-11-21T04:07:56;98708.44;;;7.81;82.05
74960;BME280;63518;49.572;1.106;2022-11-21T04:10:26;98684.16;;;7.70;82.01
74960;BME280;63518;49.572;1.106;2022-11-21T04:12:53;98683.63;;;7.68;82.68
74960;BME280;63518;49.572;1.106;2022-11-21T04:15:23;98682.75;;;7.82;83.03
74960;BME280;63518;49.572;1.106;2022-11-21T04:17:51;98673.44;;;7.83;82.93
74960;BME280;63518;49.572;1.106;2022-11-21T04:20:22;98641.91;;;7.32;84.12
74960;BME280;63518;49.572;1.106;2022-11-21T04:22:51;98656.69;;;7.90;82.65
74960;BME280;63518;49.572;1.106;2022-11-21T04:25:21;98629.19;;;7.66;82.96
74960;BME280;63518;49.572;1.106;2022-11-21T04:27:48;98651.56;;;7.78;83.01
74960;BME280;63518;49.572;1.106;2022-11-21T04:30:16;98648.72;;;7.94;82.43
74960;BME280;63518;49.572;1.106;2022-11-21T04:32:44;98657.53;;;7.91;82.60
74960;BME280;63518;49.572;1.106;2022-11-21T04:35:12;98651.47;;;7.94;82.22
74960;BME280;63518;49.572;1.106;2022-11-21T04:37:40;98610.28;;;7.70;83.74
74960;BME280;63518;49.572;1.106;2022-11-21T04:40:07;98632.66;;;7.82;83.27
74960;BME280;63518;49.572;1.106;2022-11-21T04:42:36;98644.66;;;7.91;82.84
74960;BME280;63518;49.572;1.106;2022-11-21T04:45:04;98627.66;;;7.89;83.79
74960;BME280;63518;49.572;1.106;2022-11-21T04:47:33;98623.13;;;8.13;81.60
74960;BME280;63518;49.572;1.106;2022-11-21T04:50:02;98614.66;;;8.15;82.25
74960;BME280;63518;49.572;1.106;2022-11-21T04:52:30;98615.00;;;8.03;82.30
74960;BME280;63518;49.572;1.106;2022-11-21T04:54:58;98614.72;;;8.05;82.14
74960;BME280;63518;49.572;1.106;2022-11-21T04:57:27;98609.41;;;8.19;82.18
74960;BME280;63518;49.572;1.106;2022-11-21T04:59:55;98590.72;;;7.92;81.38
74960;BME280;63518;49.572;1.106;2022-11-21T05:02:24;98593.91;;;8.04;81.94
74960;BME280;63518;49.572;1.106;2022-11-21T05:04:51;98599.59;;;8.12;82.01
74960;BME280;63518;49.572;1.106;2022-11-21T05:07:19;98589.09;;;7.91;81.99
74960;BME280;63518;49.572;1.106;2022-11-21T05:09:46;98588.53;;;7.94;83.06
74960;BME280;63518;49.572;1.106;2022-11-21T05:12:14;98603.34;;;7.88;83.59
74960;BME280;63518;49.572;1.106;2022-11-21T05:14:59;98590.47;;;7.88;83.74
74960;BME280;63518;49.572;1.106;2022-11-21T05:17:29;98590.03;;;7.71;83.70
74960;BME280;63518;49.572;1.106;2022-11-21T05:20:00;98581.81;;;7.71;83.79
74960;BME280;63518;49.572;1.106;2022-11-21T05:22:27;98550.25;;;7.39;85.07
74960;BME280;63518;49.572;1.106;2022-11-21T05:24:55;98567.53;;;7.84;85.29
74960;BME280;63518;49.572;1.106;2022-11-21T05:27:23;98553.94;;;7.69;84.50
74960;BME280;63518;49.572;1.106;2022-11-21T05:29:50;98555.63;;;7.60;85.59
74960;BME280;63518;49.572;1.106;2022-11-21T05:32:21;98574.72;;;7.65;85.08
74960;BME280;63518;49.572;1.106;2022-11-21T05:34:48;98556.00;;;7.87;84.47
74960;BME280;63518;49.572;1.106;2022-11-21T05:37:18;98533.06;;;7.78;85.35
74960;BME280;63518;49.572;1.106;2022-11-21T05:39:48;98540.44;;;7.82;85.76
74960;BME280;63518;49.572;1.106;2022-11-21T05:42:15;98511.50;;;7.71;83.58
74960;BME280;63518;49.572;1.106;2022-11-21T05:45:02;98516.41;;;8.08;84.20
74960;BME280;63518;49.572;1.106;2022-11-21T05:47:30;98517.97;;;7.86;84.21
74960;BME280;63518;49.572;1.106;2022-11-21T05:50:00;98513.44;;;7.66;84.72
74960;BME280;63518;49.572;1.106;2022-11-21T05:52:30;98504.19;;;7.96;84.94
74960;BME280;63518;49.572;1.106;2022-11-21T05:54:57;98492.53;;;7.85;84.41
74960;BME280;63518;49.572;1.106;2022-11-21T05:57:24;98491.19;;;7.82;85.30
74960;BME280;63518;49.572;1.106;2022-11-21T05:59:52;98465.69;;;7.53;85.78
74960;BME280;63518;49.572;1.106;2022-11-21T06:02:19;98486.31;;;7.74;84.55
74960;BME280;63518;49.572;1.106;2022-11-21T06:05:05;98477.94;;;7.61;86.16
74960;BME280;63518;49.572;1.106;2022-11-21T06:07:32;98458.72;;;7.66;85.34
74960;BME280;63518;49.572;1.106;2022-11-21T06:10:00;98451.28;;;7.76;85.70
74960;BME280;63518;49.572;1.106;2022-11-21T06:12:28;98457.41;;;7.63;85.23
74960;BME280;63518;49.572;1.106;2022-11-21T06:14:55;98436.66;;;7.91;84.40
74960;BME280;63518;49.572;1.106;2022-11-21T06:17:22;98433.34;;;7.94;84.07
74960;BME280;63518;49.572;1.106;2022-11-21T06:19:49;98408.13;;;7.68;83.99
74960;BME280;63518;49.572;1.106;2022-11-21T06:22:17;98403.31;;;7.55;84.56
74960;BME280;63518;49.572;1.106;2022-11-21T06:24:44;98416.97;;;7.55;84.79
74960;BME280;63518;49.572;1.106;2022-11-21T06:27:14;98398.50;;;7.71;84.73
74960;BME280;63518;49.572;1.106;2022-11-21T06:29:41;98399.03;;;7.44;85.72
74960;BME280;63518;49.572;1.106;2022-11-21T06:32:08;98402.13;;;7.66;85.33
74960;BME280;63518;49.572;1.106;2022-11-21T06:34:36;98381.03;;;7.38;85.56
74960;BME280;63518;49.572;1.106;2022-11-21T06:37:03;98374.88;;;7.85;84.67
74960;BME280;63518;49.572;1.106;2022-11-21T06:39:30;98375.84;;;7.65;84.69
74960;BME280;63518;49.572;1.106;2022-11-21T06:42:01;98358.44;;;7.85;83.93
74960;BME280;63518;49.572;1.106;2022-11-21T06:44:30;98355.34;;;7.68;83.92
74960;BME280;63518;49.572;1.106;2022-11-21T06:46:57;98344.13;;;7.64;84.61
74960;BME280;63518;49.572;1.106;2022-11-21T06:49:24;98329.00;;;8.01;82.73
74960;BME280;63518;49.572;1.106;2022-11-21T06:51:51;98315.69;;;7.89;82.88
74960;BME280;63518;49.572;1.106;2022-11-21T06:54:19;98291.81;;;7.71;83.59
74960;BME280;63518;49.572;1.106;2022-11-21T06:56:46;98272.66;;;7.47;84.33
74960;BME280;63518;49.572;1.106;2022-11-21T06:59:13;98270.75;;;7.42;84.93
74960;BME280;63518;49.572;1.106;2022-11-21T07:01:44;98277.78;;;7.53;83.58
74960;BME280;63518;49.572;1.106;2022-11-21T07:04:14;98265.34;;;7.08;84.81
74960;BME280;63518;49.572;1.106;2022-11-21T07:06:41;98258.06;;;7.80;83.82
74960;BME280;63518;49.572;1.106;2022-11-21T07:09:08;98268.25;;;7.51;84.78
74960;BME280;63518;49.572;1.106;2022-11-21T07:11:55;98250.88;;;7.37;85.34
74960;BME280;63518;49.572;1.106;2022-11-21T07:14:42;98227.94;;;7.33;84.59
74960;BME280;63518;49.572;1.106;2022-11-21T07:17:13;98246.59;;;7.25;84.30
74960;BME280;63518;49.572;1.106;2022-11-21T07:19:40;98252.47;;;7.43;84.76
74960;BME280;63518;49.572;1.106;2022-11-21T07:22:10;98227.44;;;7.78;83.13
74960;BME280;63518;49.572;1.106;2022-11-21T07:24:38;98189.78;;;7.46;83.70
74960;BME280;63518;49.572;1.106;2022-11-21T07:27:05;98219.75;;;7.80;82.17
74960;BME280;63518;49.572;1.106;2022-11-21T07:29:33;98217.44;;;7.93;82.59
74960;BME280;63518;49.572;1.106;2022-11-21T07:32:00;98205.72;;;7.63;83.35
74960;BME280;63518;49.572;1.106;2022-11-21T07:34:27;98192.84;;;7.88;83.15
74960;BME280;63518;49.572;1.106;2022-11-21T07:36:55;98193.34;;;7.71;83.20
74960;BME280;63518;49.572;1.106;2022-11-21T07:39:22;98201.19;;;7.53;84.72
74960;BME280;63518;49.572;1.106;2022-11-21T07:41:49;98204.63;;;7.40;85.09
74960;BME280;63518;49.572;1.106;2022-11-21T07:44:17;98204.16;;;7.57;84.49
74960;BME280;63518;49.572;1.106;2022-11-21T07:46:44;98178.56;;;7.24;85.07
74960;BME280;63518;49.572;1.106;2022-11-21T07:49:12;98180.19;;;7.49;84.14
74960;BME280;63518;49.572;1.106;2022-11-21T07:51:40;98203.81;;;7.40;84.88
74960;BME280;63518;49.572;1.106;2022-11-21T07:54:11;98213.78;;;7.54;84.17
74960;BME280;63518;49.572;1.106;2022-11-21T07:56:38;98229.88;;;7.56;85.37
74960;BME280;63518;49.572;1.106;2022-11-21T07:59:06;98223.25;;;7.62;83.87
74960;BME280;63518;49.572;1.106;2022-11-21T08:01:33;98227.16;;;7.80;83.92
74960;BME280;63518;49.572;1.106;2022-11-21T08:04:06;98220.22;;;7.64;84.00
74960;BME280;63518;49.572;1.106;2022-11-21T08:06:33;98202.06;;;7.73;84.45
74960;BME280;63518;49.572;1.106;2022-11-21T08:09:01;98202.19;;;7.63;85.07
74960;BME280;63518;49.572;1.106;2022-11-21T08:11:30;98181.78;;;7.74;84.68
74960;BME280;63518;49.572;1.106;2022-11-21T08:14:00;98181.72;;;7.60;85.50
74960;BME280;63518;49.572;1.106;2022-11-21T08:16:34;98168.31;;;7.82;85.24
74960;BME280;63518;49.572;1.106;2022-11-21T08:19:01;98160.91;;;8.21;83.86
74960;BME280;63518;49.572;1.106;2022-11-21T08:21:32;98157.38;;;7.82;85.31
74960;BME280;63518;49.572;1.106;2022-11-21T08:24:05;98152.00;;;7.72;84.27
74960;BME280;63518;49.572;1.106;2022-11-21T08:26:40;98156.56;;;8.01;84.18
74960;BME280;63518;49.572;1.106;2022-11-21T08:29:24;98118.81;;;7.60;84.35
74960;BME280;63518;49.572;1.106;2022-11-21T08:31:53;98118.00;;;7.78;85.32
74960;BME280;63518;49.572;1.106;2022-11-21T08:34:23;98104.94;;;7.94;84.95
74960;BME280;63518;49.572;1.106;2022-11-21T08:36:50;98062.97;;;8.18;83.14
74960;BME280;63518;49.572;1.106;2022-11-21T08:39:19;98055.38;;;7.77;85.03
74960;BME280;63518;49.572;1.106;2022-11-21T08:41:48;98039.84;;;7.72;84.20
74960;BME280;63518;49.572;1.106;2022-11-21T08:44:32;98063.69;;;8.23;83.56
74960;BME280;63518;49.572;1.106;2022-11-21T08:47:00;98038.16;;;7.76;83.82
74960;BME280;63518;49.572;1.106;2022-11-21T08:49:31;98024.34;;;7.68;83.70
74960;BME280;63518;49.572;1.106;2022-11-21T08:52:04;98046.38;;;7.76;85.13
74960;BME280;63518;49.572;1.106;2022-11-21T08:54:36;98019.66;;;8.38;83.57
74960;BME280;63518;49.572;1.106;2022-11-21T08:57:07;98050.91;;;8.19;84.30
74960;BME280;63518;49.572;1.106;2022-11-21T08:59:54;98014.72;;;8.68;81.75
74960;BME280;63518;49.572;1.106;2022-11-21T09:02:28;98045.41;;;8.19;83.12
74960;BME280;63518;49.572;1.106;2022-11-21T09:05:07;98010.56;;;8.57;84.07
74960;BME280;63518;49.572;1.106;2022-11-21T09:07:35;97996.38;;;8.82;81.18
74960;BME280;63518;49.572;1.106;2022-11-21T09:10:06;97995.06;;;8.93;81.39
74960;BME280;63518;49.572;1.106;2022-11-21T09:12:38;97989.47;;;8.25;82.31
74960;BME280;63518;49.572;1.106;2022-11-21T09:15:12;97996.03;;;8.10;84.60
74960;BME280;63518;49.572;1.106;2022-11-21T09:18:01;97967.97;;;8.18;82.71
74960;BME280;63518;49.572;1.106;2022-11-21T09:20:40;97952.00;;;8.53;83.96
74960;BME280;63518;49.572;1.106;2022-11-21T09:23:17;97967.56;;;8.85;80.34
74960;BME280;63518;49.572;1.106;2022-11-21T09:25:47;97940.88;;;8.63;81.22
74960;BME280;63518;49.572;1.106;2022-11-21T09:28:15;97966.28;;;8.03;84.12
74960;BME280;63518;49.572;1.106;2022-11-21T09:30:45;97947.69;;;8.19;83.81
74960;BME280;63518;49.572;1.106;2022-11-21T09:33:18;97945.88;;;8.15;85.14
74960;BME280;63518;49.572;1.106;2022-11-21T09:35:46;97933.50;;;8.17;83.58
74960;BME280;63518;49.572;1.106;2022-11-21T09:38:24;97912.44;;;7.85;84.47
74960;BME280;63518;49.572;1.106;2022-11-21T09:41:01;97917.25;;;8.07;85.26
74960;BME280;63518;49.572;1.106;2022-11-21T09:47:28;97903.03;;;8.05;84.23
74960;BME280;63518;49.572;1.106;2022-11-21T09:52:37;97868.56;;;8.04;83.89
74960;BME280;63518;49.572;1.106;2022-11-21T09:57:48;97867.28;;;8.15;84.80
74960;BME280;63518;49.572;1.106;2022-11-21T10:00:21;97863.94;;;8.18;85.01
74960;BME280;63518;49.572;1.106;2022-11-21T10:02:59;97861.78;;;8.01;84.90
74960;BME280;63518;49.572;1.106;2022-11-21T10:05:55;97837.34;;;7.91;85.53
74960;BME280;63518;49.572;1.106;2022-11-21T10:08:33;97823.97;;;8.03;84.87
74960;BME280;63518;49.572;1.106;2022-11-21T10:15:07;97845.28;;;8.20;84.36
74960;BME280;63518;49.572;1.106;2022-11-21T10:22:58;97834.63;;;8.32;85.17
74960;BME280;63518;49.572;1.106;2022-11-21T10:25:35;97832.19;;;8.17;85.60
74960;BME280;63518;49.572;1.106;2022-11-21T10:28:32;97844.41;;;8.38;84.85
74960;BME280;63518;49.572;1.106;2022-11-21T10:31:07;97829.69;;;8.48;84.48
74960;BME280;63518;49.572;1.106;2022-11-21T10:33:37;97820.22;;;7.86;86.04
74960;BME280;63518;49.572;1.106;2022-11-21T10:39:36;97807.84;;;8.57;84.18
74960;BME280;63518;49.572;1.106;2022-11-21T10:44:53;97781.50;;;7.92;86.18
74960;BME280;63518;49.572;1.106;2022-11-21T10:47:40;97773.81;;;8.08;83.42
74960;BME280;63518;49.572;1.106;2022-11-21T10:52:48;97753.81;;;8.21;83.46
74960;BME280;63518;49.572;1.106;2022-11-21T10:55:17;97765.09;;;8.06;84.69
74960;BME280;63518;49.572;1.106;2022-11-21T10:57:49;97746.53;;;8.17;84.35
74960;BME280;63518;49.572;1.106;2022-11-21T11:00:25;97730.91;;;8.17;84.01
74960;BME280;63518;49.572;1.106;2022-11-21T11:03:05;97723.44;;;7.81;84.35
74960;BME280;63518;49.572;1.106;2022-11-21T11:05:40;97700.72;;;8.08;84.04
74960;BME280;63518;49.572;1.106;2022-11-21T11:08:13;97698.16;;;8.39;82.75
74960;BME280;63518;49.572;1.106;2022-11-21T11:11:13;97682.69;;;7.94;84.80
74960;BME280;63518;49.572;1.106;2022-11-21T11:14:00;97680.34;;;8.01;85.44
74960;BME280;63518;49.572;1.106;2022-11-21T11:16:29;97648.38;;;8.37;83.88
74960;BME280;63518;49.572;1.106;2022-11-21T11:19:24;97623.22;;;7.86;84.45
74960;BME280;63518;49.572;1.106;2022-11-21T11:22:04;97609.66;;;8.17;83.56
74960;BME280;63518;49.572;1.106;2022-11-21T11:24:53;97578.53;;;7.90;84.88
74960;BME280;63518;49.572;1.106;2022-11-21T11:27:28;97581.00;;;7.78;85.34
74960;BME280;63518;49.572;1.106;2022-11-21T11:30:13;97563.38;;;7.70;86.22
74960;BME280;63518;49.572;1.106;2022-11-21T11:32:41;97557.81;;;7.98;86.73
74960;BME280;63518;49.572;1.106;2022-11-21T11:37:44;97523.38;;;7.74;85.96
74960;BME280;63518;49.572;1.106;2022-11-21T11:40:33;97531.66;;;7.83;86.40
74960;BME280;63518;49.572;1.106;2022-11-21T11:46:25;97484.63;;;7.59;86.36
74960;BME280;63518;49.572;1.106;2022-11-21T11:49:34;97453.56;;;7.41;86.75
74960;BME280;63518;49.572;1.106;2022-11-21T11:52:31;97460.75;;;7.73;86.24
74960;BME280;63518;49.572;1.106;2022-11-21T11:55:04;97459.44;;;7.93;85.82
74960;BME280;63518;49.572;1.106;2022-11-21T11:57:34;97437.94;;;7.55;86.87
74960;BME280;63518;49.572;1.106;2022-11-21T12:03:03;97403.38;;;7.59;86.51
74960;BME280;63518;49.572;1.106;2022-11-21T12:05:49;97387.22;;;7.71;85.99
74960;BME280;63518;49.572;1.106;2022-11-21T12:08:24;97358.41;;;7.43;85.55
74960;BME280;63518;49.572;1.106;2022-11-21T12:11:44;97370.88;;;7.89;84.04
74960;BME280;63518;49.572;1.106;2022-11-21T12:20:34;97311.19;;;7.82;84.84
74960;BME280;63518;49.572;1.106;2022-11-21T12:23:03;97277.63;;;7.99;83.90
74960;BME280;63518;49.572;1.106;2022-11-21T12:26:00;97264.63;;;7.73;84.57
74960;BME280;63518;49.572;1.106;2022-11-21T12:31:26;97254.63;;;8.17;83.86
74960;BME280;63518;49.572;1.106;2022-11-21T12:34:22;97243.47;;;8.05;83.68
74960;BME280;63518;49.572;1.106;2022-11-21T12:43:04;97226.94;;;8.10;86.26
74960;BME280;63518;49.572;1.106;2022-11-21T12:45:51;97201.53;;;7.70;85.49
74960;BME280;63518;49.572;1.106;2022-11-21T12:48:49;97221.81;;;7.69;86.25
74960;BME280;63518;49.572;1.106;2022-11-21T13:03:38;97196.72;;;7.67;86.98
74960;BME280;63518;49.572;1.106;2022-11-21T13:06:05;97178.66;;;7.66;87.39
74960;BME280;63518;49.572;1.106;2022-11-21T13:08:39;97193.38;;;7.78;87.27
74960;BME280;63518;49.572;1.106;2022-11-21T13:14:24;97173.03;;;7.62;86.79
74960;BME280;63518;49.572;1.106;2022-11-21T13:25:12;97133.75;;;7.58;87.49
74960;BME280;63518;49.572;1.106;2022-11-21T13:27:41;97132.38;;;7.78;87.08
74960;BME280;63518;49.572;1.106;2022-11-21T13:32:40;97130.56;;;7.56;87.78
74960;BME280;63518;49.572;1.106;2022-11-21T13:38:01;97121.44;;;7.69;87.46
74960;BME280;63518;49.572;1.106;2022-11-21T13:46:00;97109.81;;;7.64;87.18
74960;BME280;63518;49.572;1.106;2022-11-21T13:56:31;97106.63;;;7.79;87.52
74960;BME280;63518;49.572;1.106;2022-11-21T13:59:29;97103.09;;;7.78;86.71
74960;BME280;63518;49.572;1.106;2022-11-21T14:02:28;97104.38;;;7.72;87.88
74960;BME280;63518;49.572;1.106;2022-11-21T14:08:31;97092.63;;;7.63;88.22
74960;BME280;63518;49.572;1.106;2022-11-21T14:11:25;97085.88;;;7.78;87.80
74960;BME280;63518;49.572;1.106;2022-11-21T14:13:57;97089.88;;;7.54;87.04
74960;BME280;63518;49.572;1.106;2022-11-21T14:16:33;97063.53;;;7.84;86.72
74960;BME280;63518;49.572;1.106;2022-11-21T14:19:04;97083.31;;;7.81;86.42
74960;BME280;63518;49.572;1.106;2022-11-21T14:21:34;97092.63;;;7.80;87.31
74960;BME280;63518;49.572;1.106;2022-11-21T14:24:04;97083.50;;;7.94;85.95
74960;BME280;63518;49.572;1.106;2022-11-21T14:26:44;97049.19;;;7.88;86.40
74960;BME280;63518;49.572;1.106;2022-11-21T14:29:27;97076.88;;;7.69;86.99
74960;BME280;63518;49.572;1.106;2022-11-21T14:31:55;97045.66;;;7.96;86.42
74960;BME280;63518;49.572;1.106;2022-11-21T14:34:24;97054.34;;;7.98;86.19
74960;BME280;63518;49.572;1.106;2022-11-21T14:36:53;97049.69;;;8.24;84.57
74960;BME280;63518;49.572;1.106;2022-11-21T14:39:28;97032.47;;;7.80;86.46
74960;BME280;63518;49.572;1.106;2022-11-21T14:42:15;97060.13;;;8.05;86.67
74960;BME280;63518;49.572;1.106;2022-11-21T14:45:23;97046.63;;;8.17;85.69
74960;BME280;63518;49.572;1.106;2022-11-21T14:47:55;97020.25;;;7.87;86.19
74960;BME280;63518;49.572;1.106;2022-11-21T14:50:32;97031.34;;;7.99;85.95
74960;BME280;63518;49.572;1.106;2022-11-21T14:53:02;97029.22;;;8.13;85.93
74960;BME280;63518;49.572;1.106;2022-11-21T14:55:33;97037.94;;;7.89;86.50
74960;BME280;63518;49.572;1.106;2022-11-21T14:58:05;97030.84;;;8.31;86.00
74960;BME280;63518;49.572;1.106;2022-11-21T15:00:34;97031.97;;;8.04;85.24
74960;BME280;63518;49.572;1.106;2022-11-21T15:03:29;96990.47;;;7.85;86.36
74960;BME280;63518;49.572;1.106;2022-11-21T15:05:59;97028.59;;;8.16;86.44
74960;BME280;63518;49.572;1.106;2022-11-21T15:08:36;97018.63;;;8.37;83.45
74960;BME280;63518;49.572;1.106;2022-11-21T15:11:37;97021.66;;;8.53;83.01
74960;BME280;63518;49.572;1.106;2022-11-21T15:14:20;97015.22;;;8.23;84.94
74960;BME280;63518;49.572;1.106;2022-11-21T15:16:56;96986.59;;;7.95;85.18
74960;BME280;63518;49.572;1.106;2022-11-21T15:19:26;97011.53;;;8.10;86.71
74960;BME280;63518;49.572;1.106;2022-11-21T15:21:56;96992.38;;;8.10;86.11
74960;BME280;63518;49.572;1.106;2022-11-21T15:24:34;96995.59;;;8.38;83.53
74960;BME280;63518;49.572;1.106;2022-11-21T15:32:31;97047.38;;;9.08;81.88